Time;durP1;ratioP1;P1;durP2;ratioP2;P2;SDS_P1;SDS_P2;PMS_P1;PMS_P2;Temp;Humidity;BMP_temperature;BMP_pressure;BME280_temperature;BME280_humidity;BME280_pressure;Samples;Min_cycle;Max_cycle;Signal;HPM_P1;HPM_P2
2021/05/16 00:00:09;;;;;;;6.50;2.63;;;19.10;92.90;;;;;;5032345;28;20437;-71
2021/05/16 00:02:35;;;;;;;7.63;2.00;;;19.00;92.80;;;;;;5031911;28;20025;-71
2021/05/16 00:05:01;;;;;;;7.63;2.50;;;19.00;92.80;;;;;;5032277;28;20515;-70
2021/05/16 00:07:27;;;;;;;8.52;2.90;;;19.00;92.80;;;;;;5031546;28;20378;-70
2021/05/16 00:09:52;;;;;;;9.43;2.45;;;18.90;92.80;;;;;;5031688;28;20053;-70
2021/05/16 00:12:18;;;;;;;6.90;2.67;;;18.90;92.80;;;;;;5031933;28;20037;-70
2021/05/16 00:14:44;;;;;;;8.38;2.40;;;18.90;92.80;;;;;;5032536;28;20075;-69
2021/05/16 00:17:09;;;;;;;7.75;2.40;;;18.80;92.80;;;;;;5032161;28;20026;-70
2021/05/16 00:19:35;;;;;;;6.65;2.20;;;18.80;92.80;;;;;;5031644;28;20050;-71
2021/05/16 00:22:01;;;;;;;7.38;2.28;;;18.80;92.90;;;;;;5031859;28;20464;-71
2021/05/16 00:24:27;;;;;;;9.25;2.67;;;18.80;92.90;;;;;;5031891;28;20045;-71
2021/05/16 00:26:53;;;;;;;6.82;2.22;;;18.70;92.90;;;;;;5031858;28;20040;-71
2021/05/16 00:29:18;;;;;;;7.22;2.10;;;18.70;92.90;;;;;;5030522;28;20025;-69
2021/05/16 00:31:44;;;;;;;6.97;2.30;;;18.70;92.90;;;;;;5031986;28;20386;-69
2021/05/16 00:34:10;;;;;;;7.22;2.47;;;18.60;92.90;;;;;;5031919;28;20389;-71
2021/05/16 00:36:36;;;;;;;6.50;2.10;;;18.60;92.90;;;;;;5031091;28;20037;-71
2021/05/16 00:39:03;;;;;;;7.10;2.20;;;18.60;92.90;;;;;;5031905;28;20025;-69
2021/05/16 00:41:28;;;;;;;8.05;2.30;;;18.60;93.20;;;;;;5031051;28;20060;-70
2021/05/16 00:43:54;;;;;;;9.18;2.90;;;18.50;92.90;;;;;;5031833;28;20021;-71
2021/05/16 00:46:20;;;;;;;7.50;2.45;;;18.50;92.90;;;;;;5031038;28;20112;-71
2021/05/16 00:48:45;;;;;;;8.43;2.58;;;18.50;92.90;;;;;;5031993;28;20028;-70
2021/05/16 00:51:11;;;;;;;6.88;2.20;;;18.50;92.90;;;;;;5031067;28;20034;-70
2021/05/16 00:53:38;;;;;;;8.23;2.25;;;18.50;92.90;;;;;;5031236;28;20045;-71
2021/05/16 00:56:04;;;;;;;9.00;2.53;;;18.50;92.90;;;;;;5030469;28;20448;-70
2021/05/16 00:58:30;;;;;;;6.38;2.30;;;18.50;92.90;;;;;;5031145;28;20033;-71
2021/05/16 01:00:56;;;;;;;8.40;2.65;;;18.50;92.90;;;;;;5031277;28;20099;-70
2021/05/16 01:03:21;;;;;;;6.63;2.42;;;18.50;92.90;;;;;;5030952;28;20028;-70
2021/05/16 01:05:48;;;;;;;6.10;2.20;;;18.50;92.90;;;;;;5031041;28;20033;-68
2021/05/16 01:08:14;;;;;;;7.68;2.55;;;18.40;92.90;;;;;;5029960;28;20030;-70
2021/05/16 01:10:42;;;;;;;7.85;2.67;;;18.40;92.90;;;;;;5030897;28;20025;-71
2021/05/16 01:13:10;;;;;;;6.80;1.95;;;18.40;92.90;;;;;;5031561;28;20041;-70
2021/05/16 01:15:37;;;;;;;8.40;2.35;;;18.40;92.80;;;;;;5030928;28;20388;-70
2021/05/16 01:18:03;;;;;;;6.80;2.38;;;18.40;92.80;;;;;;5031079;28;20025;-71
2021/05/16 01:20:32;;;;;;;8.07;2.33;;;18.30;93.10;;;;;;5030637;28;20499;-71
2021/05/16 01:23:05;;;;;;;6.30;2.10;;;18.40;92.90;;;;;;5029983;28;20025;-70
2021/05/16 01:25:34;;;;;;;7.40;2.10;;;18.30;92.80;;;;;;5031083;28;20036;-70
2021/05/16 01:28:00;;;;;;;6.68;2.40;;;18.30;92.80;;;;;;5031024;28;20108;-69
2021/05/16 01:30:26;;;;;;;7.03;2.35;;;18.30;92.90;;;;;;5030686;28;20032;-69
2021/05/16 01:32:53;;;;;;;7.57;2.70;;;18.30;92.90;;;;;;5030874;28;20054;-67
2021/05/16 01:35:20;;;;;;;7.90;2.10;;;18.30;92.90;;;;;;5030996;28;20030;-69
2021/05/16 01:37:47;;;;;;;5.97;2.20;;;18.20;92.80;;;;;;5030907;28;20025;-71
2021/05/16 01:40:14;;;;;;;6.88;2.78;;;18.20;92.80;;;;;;5031305;28;20498;-69
2021/05/16 01:42:47;;;;;;;8.23;2.70;;;18.20;92.80;;;;;;5034779;28;20036;-68
2021/05/16 01:45:14;;;;;;;7.18;2.30;;;18.20;92.80;;;;;;5021205;28;20108;-69
2021/05/16 01:47:40;;;;;;;7.13;2.45;;;18.20;92.80;;;;;;5034394;28;20451;-72
2021/05/16 01:50:09;;;;;;;8.48;2.63;;;18.20;92.80;;;;;;5033793;28;20319;-69
2021/05/16 01:52:35;;;;;;;8.15;2.20;;;18.20;92.80;;;;;;5034467;28;20476;-70
2021/05/16 01:55:03;;;;;;;6.03;2.38;;;18.20;92.80;;;;;;5035054;28;20026;-70
2021/05/16 01:57:29;;;;;;;7.70;2.55;;;18.10;93.10;;;;;;5034472;28;20079;-68
2021/05/16 01:59:55;;;;;;;8.57;2.83;;;18.10;92.80;;;;;;5034282;28;20025;-71
2021/05/16 02:02:21;;;;;;;7.00;2.30;;;18.10;92.80;;;;;;5034510;28;20018;-70
2021/05/16 02:04:47;;;;;;;7.10;2.38;;;18.10;93.10;;;;;;5033272;28;20428;-64
2021/05/16 02:07:13;;;;;;;6.30;1.88;;;18.10;92.80;;;;;;5034433;28;20039;-64
2021/05/16 02:09:40;;;;;;;7.20;2.47;;;18.10;92.80;;;;;;5034175;28;20378;-66
2021/05/16 02:12:07;;;;;;;6.95;2.53;;;18.10;92.80;;;;;;5034455;28;20034;-66
2021/05/16 02:14:33;;;;;;;6.43;2.33;;;18.10;92.70;;;;;;5034096;28;20053;-65
2021/05/16 02:17:01;;;;;;;7.40;2.35;;;18.10;92.70;;;;;;5034724;28;20033;-66
2021/05/16 02:19:27;;;;;;;6.18;2.05;;;18.00;92.70;;;;;;5034021;28;20044;-64
2021/05/16 02:21:53;;;;;;;6.22;2.22;;;18.00;92.70;;;;;;5033008;28;20397;-65
2021/05/16 02:24:20;;;;;;;6.22;2.30;;;18.00;92.70;;;;;;5034119;28;20080;-69
2021/05/16 02:26:46;;;;;;;5.40;2.22;;;18.00;93.00;;;;;;5034621;28;20021;-70
2021/05/16 02:29:14;;;;;;;6.93;2.60;;;18.00;92.70;;;;;;5034345;28;20044;-70
2021/05/16 02:31:41;;;;;;;5.78;2.10;;;18.00;92.70;;;;;;5033991;28;20021;-72
2021/05/16 02:34:07;;;;;;;7.82;2.40;;;18.00;92.70;;;;;;5033671;28;20464;-69
2021/05/16 02:36:33;;;;;;;7.25;2.53;;;18.00;92.70;;;;;;5033848;28;20030;-70
2021/05/16 02:38:59;;;;;;;5.30;2.08;;;17.90;92.60;;;;;;5033746;28;20094;-69
2021/05/16 02:41:25;;;;;;;7.18;2.38;;;18.00;92.70;;;;;;5033046;28;20034;-69
2021/05/16 02:43:51;;;;;;;6.35;2.38;;;17.90;93.00;;;;;;5033973;28;20350;-70
2021/05/16 02:46:16;;;;;;;8.60;2.47;;;17.90;92.60;;;;;;5033948;28;20504;-71
2021/05/16 02:48:42;;;;;;;6.80;2.22;;;17.90;92.60;;;;;;5033746;28;20033;-70
2021/05/16 02:51:08;;;;;;;6.97;2.40;;;17.90;92.60;;;;;;5033344;28;20030;-71
2021/05/16 02:53:34;;;;;;;8.32;2.58;;;17.90;92.60;;;;;;5032708;28;20038;-72
2021/05/16 02:56:00;;;;;;;6.50;2.38;;;17.90;92.60;;;;;;5033540;28;20496;-70
2021/05/16 02:58:25;;;;;;;7.43;2.45;;;17.90;92.60;;;;;;5033202;28;20462;-71
2021/05/16 03:00:51;;;;;;;8.77;2.40;;;17.90;92.60;;;;;;5033445;28;20474;-70
2021/05/16 03:03:17;;;;;;;7.05;2.15;;;17.80;92.60;;;;;;5033075;28;20520;-65
2021/05/16 03:05:42;;;;;;;8.48;2.20;;;17.80;92.60;;;;;;5033527;28;20026;-71
2021/05/16 03:08:08;;;;;;;7.50;2.38;;;17.80;92.60;;;;;;5033865;28;20444;-71
2021/05/16 03:10:35;;;;;;;5.55;1.73;;;17.80;92.60;;;;;;5033265;28;20025;-70
2021/05/16 03:13:00;;;;;;;6.32;2.40;;;17.80;92.60;;;;;;5033073;28;20501;-69
2021/05/16 03:15:26;;;;;;;6.57;1.85;;;17.80;92.60;;;;;;5032911;28;20053;-71
2021/05/16 03:17:51;;;;;;;7.03;2.05;;;17.80;92.60;;;;;;5033432;28;20070;-71
2021/05/16 03:20:17;;;;;;;4.90;2.10;;;17.80;92.60;;;;;;5032742;28;20029;-67
2021/05/16 03:22:43;;;;;;;6.60;2.10;;;17.70;92.60;;;;;;5033456;28;20531;-71
2021/05/16 03:25:13;;;;;;;8.23;2.38;;;17.70;92.50;;;;;;5033203;28;20482;-71
2021/05/16 03:27:38;;;;;;;6.57;2.25;;;17.70;92.50;;;;;;5032997;28;20022;-70
2021/05/16 03:30:10;;;;;;;6.50;1.95;;;17.70;92.50;;;;;;5032896;28;20038;-71
2021/05/16 03:32:36;;;;;;;6.55;2.28;;;17.70;92.50;;;;;;5032532;28;20051;-70
2021/05/16 03:35:04;;;;;;;5.38;1.95;;;17.70;92.50;;;;;;5032977;28;20026;-69
2021/05/16 03:37:30;;;;;;;6.85;2.08;;;17.70;92.50;;;;;;5032353;28;20040;-72
2021/05/16 03:39:56;;;;;;;4.50;2.05;;;17.70;92.50;;;;;;5032548;28;20025;-67
2021/05/16 03:42:22;;;;;;;5.93;2.10;;;17.70;92.50;;;;;;5032736;28;20034;-70
2021/05/16 03:44:47;;;;;;;6.97;2.30;;;17.70;92.40;;;;;;5032157;28;20034;-69
2021/05/16 03:47:13;;;;;;;6.47;2.20;;;17.70;92.50;;;;;;5032815;28;20030;-69
2021/05/16 03:49:39;;;;;;;6.30;2.13;;;17.70;92.40;;;;;;5032077;28;20474;-69
2021/05/16 03:52:04;;;;;;;7.13;2.13;;;17.70;92.40;;;;;;5028755;28;20469;-70
2021/05/16 03:54:30;;;;;;;6.38;1.98;;;17.60;92.40;;;;;;5032456;28;20103;-67
2021/05/16 03:56:56;;;;;;;6.90;2.33;;;17.60;92.40;;;;;;5032713;28;20021;-69
2021/05/16 03:59:22;;;;;;;6.50;2.08;;;17.60;92.40;;;;;;5031719;28;20036;-66
2021/05/16 04:01:48;;;;;;;7.32;2.28;;;17.60;92.40;;;;;;5032533;28;20021;-68
2021/05/16 04:04:14;;;;;;;6.30;2.20;;;17.60;92.40;;;;;;5032469;28;20033;-65
2021/05/16 04:06:39;;;;;;;5.30;2.00;;;17.60;92.40;;;;;;5031333;28;20021;-65
2021/05/16 04:09:05;;;;;;;5.93;2.20;;;17.60;92.40;;;;;;5032084;28;20047;-66
2021/05/16 04:11:31;;;;;;;6.63;2.00;;;17.60;92.40;;;;;;5031895;28;20034;-64
2021/05/16 04:13:56;;;;;;;6.65;2.20;;;17.50;92.30;;;;;;5032248;28;20397;-65
2021/05/16 04:16:22;;;;;;;6.18;2.10;;;17.50;92.30;;;;;;5031722;28;20037;-65
2021/05/16 04:18:48;;;;;;;5.05;1.65;;;17.60;92.30;;;;;;5031563;28;20111;-65
2021/05/16 04:21:13;;;;;;;5.47;1.75;;;17.60;92.20;;;;;;5032039;28;20493;-66
2021/05/16 04:23:39;;;;;;;6.03;2.20;;;17.60;92.20;;;;;;5031771;28;20025;-65
2021/05/16 04:26:05;;;;;;;7.15;2.05;;;17.60;92.20;;;;;;5032217;28;20381;-68
2021/05/16 04:28:31;;;;;;;5.88;2.00;;;17.60;92.20;;;;;;5031866;28;20025;-65
2021/05/16 04:30:57;;;;;;;5.47;1.73;;;17.60;92.10;;;;;;5032076;28;20385;-65
2021/05/16 04:33:23;;;;;;;4.43;1.75;;;17.70;92.10;;;;;;5031338;28;20095;-64
2021/05/16 04:35:49;;;;;;;6.55;1.92;;;17.60;92.00;;;;;;5031428;28;20440;-66
2021/05/16 04:38:14;;;;;;;5.65;2.17;;;17.60;92.10;;;;;;5032448;28;20373;-66
2021/05/16 04:40:40;;;;;;;6.15;1.83;;;17.50;92.10;;;;;;5031547;28;20025;-64
2021/05/16 04:43:07;;;;;;;5.25;1.95;;;17.60;92.00;;;;;;5031991;28;20430;-70
2021/05/16 04:45:32;;;;;;;5.15;1.70;;;17.60;91.90;;;;;;5031100;28;20030;-71
2021/05/16 04:47:58;;;;;;;5.13;1.98;;;17.50;91.90;;;;;;5031150;28;20045;-72
2021/05/16 04:50:24;;;;;;;4.93;1.65;;;17.60;91.80;;;;;;5029396;28;20029;-70
2021/05/16 04:52:49;;;;;;;6.85;2.03;;;17.60;91.70;;;;;;5031542;28;20120;-69
2021/05/16 04:55:15;;;;;;;6.13;1.73;;;17.70;91.60;;;;;;5031913;28;20021;-70
2021/05/16 04:57:41;;;;;;;4.70;1.80;;;17.80;91.40;;;;;;5031200;28;20061;-71
2021/05/16 05:00:08;;;;;;;6.22;1.90;;;17.80;91.30;;;;;;5030984;28;20508;-69
2021/05/16 05:02:36;;;;;;;5.22;1.98;;;17.80;91.20;;;;;;5032976;28;20029;-70
2021/05/16 05:05:03;;;;;;;5.68;2.05;;;17.90;91.20;;;;;;5031232;28;20033;-70
2021/05/16 05:07:29;;;;;;;7.07;2.45;;;17.90;91.00;;;;;;5031325;28;20025;-71
2021/05/16 05:09:55;;;;;;;4.40;1.90;;;18.00;91.00;;;;;;5031025;28;20374;-71
2021/05/16 05:12:21;;;;;;;5.00;1.73;;;18.00;90.90;;;;;;5030650;28;20040;-72
2021/05/16 05:14:46;;;;;;;5.45;1.80;;;18.00;90.80;;;;;;5031379;28;20026;-69
2021/05/16 05:17:12;;;;;;;6.00;1.67;;;18.10;90.80;;;;;;5031209;28;20022;-71
2021/05/16 05:19:37;;;;;;;6.53;1.90;;;18.10;90.70;;;;;;5030756;28;20417;-70
2021/05/16 05:22:03;;;;;;;5.60;1.83;;;18.10;90.60;;;;;;5031005;28;20021;-71
2021/05/16 05:24:29;;;;;;;4.70;1.88;;;18.20;90.60;;;;;;5031031;28;20029;-70
2021/05/16 05:26:54;;;;;;;4.40;1.50;;;18.20;90.50;;;;;;5031323;28;20034;-71
2021/05/16 05:29:20;;;;;;;5.47;1.88;;;18.20;90.50;;;;;;5030477;28;20060;-69
2021/05/16 05:31:45;;;;;;;6.45;1.83;;;18.20;90.40;;;;;;5031284;28;20025;-70
2021/05/16 05:34:12;;;;;;;6.78;2.13;;;18.20;90.40;;;;;;5030813;28;20068;-69
2021/05/16 05:36:37;;;;;;;4.55;1.80;;;18.30;90.40;;;;;;5030847;28;20116;-69
2021/05/16 05:39:04;;;;;;;5.10;1.75;;;18.30;90.30;;;;;;5031158;28;20472;-70
2021/05/16 05:41:30;;;;;;;6.40;2.00;;;18.30;90.30;;;;;;5031070;28;20022;-72
2021/05/16 05:43:55;;;;;;;3.83;1.67;;;18.40;90.30;;;;;;5031202;28;20432;-70
2021/05/16 05:46:21;;;;;;;5.18;1.83;;;18.40;90.20;;;;;;5030424;28;20101;-69
2021/05/16 05:48:47;;;;;;;6.55;1.92;;;18.40;90.20;;;;;;5030842;28;20075;-67
2021/05/16 05:51:13;;;;;;;5.03;1.73;;;18.40;90.20;;;;;;5025076;28;20037;-68
2021/05/16 05:53:40;;;;;;;5.40;1.80;;;18.50;90.10;;;;;;5030630;28;20038;-68
2021/05/16 05:56:06;;;;;;;4.85;1.73;;;18.50;90.10;;;;;;5031276;28;20029;-69
2021/05/16 05:58:35;;;;;;;5.70;2.10;;;18.50;90.10;;;;;;5030513;28;20030;-69
2021/05/16 06:01:00;;;;;;;5.95;2.00;;;18.50;90.10;;;;;;5030669;28;20108;-69
2021/05/16 06:03:26;;;;;;;6.57;2.38;;;18.50;90.00;;;;;;5030656;28;20104;-69
2021/05/16 06:05:52;;;;;;;6.93;2.10;;;18.60;90.00;;;;;;5030062;28;20477;-68
2021/05/16 06:08:18;;;;;;;5.47;2.05;;;18.60;90.00;;;;;;5030289;28;20037;-64
2021/05/16 06:10:44;;;;;;;6.95;2.13;;;18.60;90.00;;;;;;5031272;28;20022;-68
2021/05/16 06:13:09;;;;;;;6.15;2.08;;;18.60;90.00;;;;;;5030822;28;20445;-68
2021/05/16 06:15:35;;;;;;;6.18;2.15;;;18.60;90.00;;;;;;5030226;28;20035;-69
2021/05/16 06:18:01;;;;;;;4.30;1.80;;;18.60;90.10;;;;;;5030851;28;20084;-67
2021/05/16 06:20:28;;;;;;;6.15;1.88;;;18.60;90.10;;;;;;5029545;28;20033;-66
2021/05/16 06:22:54;;;;;;;7.25;2.08;;;18.60;90.00;;;;;;5030717;28;20029;-66
2021/05/16 06:25:20;;;;;;;4.20;1.80;;;18.60;90.00;;;;;;5030437;28;20040;-71
2021/05/16 06:27:45;;;;;;;5.72;1.90;;;18.70;90.10;;;;;;5031395;28;20029;-70
2021/05/16 06:30:12;;;;;;;4.30;1.90;;;18.70;90.10;;;;;;5034086;28;20096;-68
2021/05/16 06:32:39;;;;;;;5.63;2.00;;;18.70;90.10;;;;;;5033262;28;20034;-70
2021/05/16 06:35:06;;;;;;;6.93;2.22;;;18.70;90.10;;;;;;5034185;28;20036;-69
2021/05/16 06:37:31;;;;;;;5.82;2.13;;;18.70;90.00;;;;;;5033796;28;20071;-70
2021/05/16 06:39:57;;;;;;;5.72;2.45;;;18.80;90.40;;;;;;5033585;28;20405;-70
2021/05/16 06:42:22;;;;;;;5.72;2.00;;;18.80;90.20;;;;;;5033844;28;20041;-70
2021/05/16 06:44:48;;;;;;;8.60;2.20;;;18.80;90.30;;;;;;5033298;28;20044;-71
2021/05/16 06:47:14;;;;;;;6.22;2.10;;;18.80;90.40;;;;;;5034499;28;20104;-69
2021/05/16 06:49:39;;;;;;;6.32;2.00;;;18.80;90.30;;;;;;5033128;28;20470;-68
2021/05/16 06:52:05;;;;;;;7.68;2.03;;;18.80;90.50;;;;;;5033719;28;20029;-67
2021/05/16 06:54:31;;;;;;;5.88;2.10;;;18.80;90.50;;;;;;5033892;28;20025;-67
2021/05/16 06:56:57;;;;;;;6.50;2.15;;;18.80;90.50;;;;;;5033704;28;20434;-68
2021/05/16 06:59:22;;;;;;;9.00;2.30;;;18.70;90.40;;;;;;5033507;28;20432;-68
2021/05/16 07:01:48;;;;;;;4.57;2.00;;;18.70;90.40;;;;;;5031913;28;20421;-70
2021/05/16 07:04:14;;;;;;;6.65;2.05;;;18.80;90.40;;;;;;5033975;28;20025;-72
2021/05/16 07:06:39;;;;;;;8.05;2.53;;;18.80;90.40;;;;;;5033244;28;20037;-69
2021/05/16 07:09:05;;;;;;;6.28;2.35;;;18.80;90.50;;;;;;5033609;28;20478;-71
2021/05/16 07:11:31;;;;;;;5.20;2.10;;;18.60;90.60;;;;;;5032971;28;20393;-71
2021/05/16 07:13:57;;;;;;;6.50;2.00;;;18.60;90.60;;;;;;5033413;28;20033;-71
2021/05/16 07:16:22;;;;;;;5.65;2.00;;;18.60;90.80;;;;;;5032117;28;20021;-71
2021/05/16 07:18:48;;;;;;;7.00;2.05;;;18.60;90.80;;;;;;5033464;28;20147;-71
2021/05/16 07:21:14;;;;;;;8.15;2.60;;;18.60;90.90;;;;;;5033179;28;20025;-70
2021/05/16 07:23:40;;;;;;;6.88;2.00;;;18.60;90.90;;;;;;5032804;28;20394;-72
2021/05/16 07:26:05;;;;;;;5.28;2.10;;;18.60;90.80;;;;;;5033296;28;20037;-72
2021/05/16 07:28:31;;;;;;;6.30;1.90;;;18.60;90.80;;;;;;5032292;28;20032;-71
2021/05/16 07:30:56;;;;;;;7.07;2.20;;;18.60;90.90;;;;;;5032447;28;20029;-71
2021/05/16 07:33:23;;;;;;;5.43;2.05;;;18.60;90.90;;;;;;5031817;28;20056;-71
2021/05/16 07:35:48;;;;;;;6.07;2.15;;;18.60;91.00;;;;;;5033068;28;20018;-70
2021/05/16 07:38:14;;;;;;;8.35;2.25;;;18.60;91.10;;;;;;5032723;28;20037;-71
2021/05/16 07:40:40;;;;;;;5.43;1.75;;;18.60;91.50;;;;;;5032348;28;20026;-70
2021/05/16 07:43:07;;;;;;;5.47;1.70;;;18.70;91.60;;;;;;5032948;28;20494;-69
2021/05/16 07:45:33;;;;;;;7.03;2.20;;;18.70;91.60;;;;;;5032119;28;20497;-71
2021/05/16 07:47:59;;;;;;;8.82;2.33;;;18.70;91.50;;;;;;5032832;28;20033;-69
2021/05/16 07:50:24;;;;;;;11.30;2.60;;;18.70;92.20;;;;;;5031557;28;20049;-71
2021/05/16 07:52:50;;;;;;;11.30;2.60;;;18.70;92.70;;;;;;5032339;28;20427;-72
2021/05/16 07:55:16;;;;;;;10.20;2.40;;;18.60;92.60;;;;;;5033182;28;20028;-70
2021/05/16 07:57:41;;;;;;;8.82;2.60;;;18.60;92.50;;;;;;5032676;28;20469;-69
2021/05/16 08:00:12;;;;;;;11.23;2.15;;;18.60;92.30;;;;;;5032311;28;20033;-70
2021/05/16 08:02:40;;;;;;;10.68;2.20;;;18.50;92.30;;;;;;5032312;28;20132;-71
2021/05/16 08:05:07;;;;;;;8.35;2.30;;;18.50;92.40;;;;;;5032196;28;20025;-72
2021/05/16 08:07:32;;;;;;;6.65;2.20;;;18.60;92.30;;;;;;5032276;28;20033;-71
2021/05/16 08:09:58;;;;;;;9.93;2.33;;;18.60;92.10;;;;;;5032337;28;20075;-72
2021/05/16 08:12:23;;;;;;;6.47;2.00;;;18.70;92.30;;;;;;5032127;28;20021;-71
2021/05/16 08:14:49;;;;;;;6.18;1.80;;;18.70;91.90;;;;;;5031514;28;20033;-71
2021/05/16 08:17:15;;;;;;;6.03;1.80;;;18.70;91.80;;;;;;5032067;28;20370;-75
2021/05/16 08:19:41;;;;;;;5.60;1.48;;;18.80;91.70;;;;;;5031874;28;20080;-72
2021/05/16 08:22:10;;;;;;;5.82;1.67;;;18.80;91.60;;;;;;5032190;28;20021;-70
2021/05/16 08:24:36;;;;;;;6.40;1.83;;;18.80;91.60;;;;;;5031919;28;20037;-70
2021/05/16 08:27:05;;;;;;;7.05;1.88;;;18.80;91.90;;;;;;5031694;28;20105;-67
2021/05/16 08:29:31;;;;;;;4.20;1.60;;;18.80;91.60;;;;;;5030788;28;20029;-69
2021/05/16 08:31:56;;;;;;;7.32;1.80;;;18.90;91.60;;;;;;5030447;28;20017;-68
2021/05/16 08:34:22;;;;;;;4.38;1.63;;;18.90;91.60;;;;;;5031238;28;20529;-70
2021/05/16 08:36:48;;;;;;;4.78;1.30;;;18.90;91.60;;;;;;5032098;28;20049;-71
2021/05/16 08:39:14;;;;;;;5.75;1.42;;;18.90;91.60;;;;;;5032093;28;20363;-69
2021/05/16 08:41:39;;;;;;;5.50;1.45;;;18.90;91.60;;;;;;5031198;28;20033;-66
2021/05/16 08:44:05;;;;;;;5.07;1.45;;;19.00;91.70;;;;;;5031980;28;20068;-63
2021/05/16 08:46:31;;;;;;;5.35;1.77;;;19.00;91.60;;;;;;5031568;28;20100;-65
2021/05/16 08:48:57;;;;;;;5.03;1.65;;;19.00;91.50;;;;;;5031982;28;20053;-63
2021/05/16 08:51:23;;;;;;;5.72;1.40;;;19.00;92.10;;;;;;5025341;28;20489;-65
2021/05/16 08:53:49;;;;;;;5.47;1.42;;;19.20;92.20;;;;;;5031087;28;20041;-61
2021/05/16 08:56:14;;;;;;;6.43;1.50;;;19.40;92.10;;;;;;5030751;28;20075;-65
2021/05/16 08:58:40;;;;;;;4.13;1.50;;;19.50;91.90;;;;;;5030757;28;20026;-64
2021/05/16 09:01:23;;;;;;;7.78;2.00;;;19.70;91.80;;;;;;5030971;28;20485;-62
2021/05/16 09:03:49;;;;;;;5.93;1.60;;;19.90;91.70;;;;;;5031417;28;20025;-64
2021/05/16 09:06:15;;;;;;;4.53;1.50;;;20.00;91.50;;;;;;5030924;28;20029;-63
2021/05/16 09:08:41;;;;;;;3.92;1.48;;;20.20;91.40;;;;;;5030693;28;20033;-62
2021/05/16 09:11:07;;;;;;;4.05;1.42;;;20.20;91.20;;;;;;5030563;28;20079;-65
2021/05/16 09:13:39;;;;;;;4.75;1.40;;;20.20;91.60;;;;;;5030243;28;20040;-64
2021/05/16 09:16:09;;;;;;;4.82;1.35;;;20.40;91.30;;;;;;5030443;28;20037;-64
2021/05/16 09:18:48;;;;;;;3.30;1.15;;;20.30;91.20;;;;;;5030691;28;20033;-64
2021/05/16 09:21:31;;;;;;;5.20;1.38;;;20.40;91.10;;;;;;5028593;28;20386;-66
2021/05/16 09:23:59;;;;;;;6.03;1.60;;;20.60;91.10;;;;;;5031053;28;20036;-69
2021/05/16 09:26:29;;;;;;;5.22;1.58;;;20.50;91.10;;;;;;5030215;28;20049;-65
2021/05/16 09:28:55;;;;;;;5.97;1.50;;;20.60;91.00;;;;;;5030989;28;20025;-65
2021/05/16 09:31:35;;;;;;;5.60;1.40;;;20.60;91.20;;;;;;5029962;28;20017;-65
2021/05/16 09:34:06;;;;;;;10.07;1.50;;;20.70;91.10;;;;;;5030519;28;20049;-65
2021/05/16 09:36:36;;;;;;;5.60;1.45;;;20.70;91.00;;;;;;5030339;28;20034;-65
2021/05/16 09:39:37;;;;;;;7.30;1.38;;;20.80;91.00;;;;;;5029899;28;20030;-65
2021/05/16 09:42:13;;;;;;;6.55;1.40;;;20.80;90.90;;;;;;5017339;28;20030;-65
2021/05/16 09:44:47;;;;;;;4.15;1.30;;;20.70;91.10;;;;;;5030270;28;20389;-65
2021/05/16 09:47:17;;;;;;;6.68;1.42;;;20.80;91.00;;;;;;5031014;28;20026;-65
2021/05/16 09:49:45;;;;;;;3.70;0.98;;;20.80;91.00;;;;;;5030845;28;20060;-65
2021/05/16 09:52:17;;;;;;;6.40;1.38;;;20.80;90.90;;;;;;5030614;28;20470;-65
2021/05/16 09:54:56;;;;;;;3.75;1.35;;;20.70;90.90;;;;;;5030505;28;20128;-65
2021/05/16 09:57:23;;;;;;;4.90;1.55;;;20.70;90.90;;;;;;5030037;28;20033;-66
2021/05/16 09:59:49;;;;;;;5.50;1.40;;;20.70;91.00;;;;;;5030705;28;20056;-65
2021/05/16 10:02:15;;;;;;;4.05;1.50;;;20.60;91.00;;;;;;5032260;28;20048;-64
2021/05/16 10:04:42;;;;;;;8.00;1.60;;;20.60;90.90;;;;;;5034439;28;20025;-65
2021/05/16 10:07:08;;;;;;;6.05;1.45;;;20.60;90.90;;;;;;5033462;28;20431;-65
2021/05/16 10:09:34;;;;;;;3.83;1.30;;;20.60;90.80;;;;;;5033568;28;20030;-65
2021/05/16 10:12:03;;;;;;;5.53;1.38;;;20.60;90.90;;;;;;5034292;28;20017;-65
2021/05/16 10:14:30;;;;;;;5.38;1.40;;;20.60;90.90;;;;;;5033859;28;20425;-64
2021/05/16 10:16:59;;;;;;;3.85;1.55;;;20.70;90.80;;;;;;5034011;28;20442;-65
2021/05/16 10:19:30;;;;;;;5.00;1.83;;;20.80;90.70;;;;;;5033717;28;20518;-70
2021/05/16 10:22:09;;;;;;;3.72;1.27;;;20.80;90.70;;;;;;5034283;28;20029;-75
2021/05/16 10:24:42;;;;;;;5.85;1.63;;;20.90;90.60;;;;;;5031826;28;20103;-74
2021/05/16 10:27:32;;;;;;;5.40;1.52;;;20.90;90.60;;;;;;5033247;28;20078;-78
2021/05/16 10:29:59;;;;;;;5.43;1.60;;;20.90;91.10;;;;;;5033445;28;20030;-74
2021/05/16 10:32:57;;;;;;;5.55;1.65;;;21.00;90.60;;;;;;5030834;28;20370;-73
2021/05/16 10:35:23;;;;;;;5.13;1.40;;;21.10;91.00;;;;;;5031365;28;20080;-67
2021/05/16 10:37:51;;;;;;;3.47;1.27;;;21.10;90.90;;;;;;5032534;28;20029;-66
2021/05/16 10:40:22;;;;;;;5.32;1.50;;;21.10;91.20;;;;;;5031815;28;20104;-63
2021/05/16 10:42:50;;;;;;;4.78;1.45;;;21.00;91.50;;;;;;5032464;28;20029;-68
2021/05/16 10:45:20;;;;;;;5.00;1.42;;;20.90;91.70;;;;;;5033981;28;20021;-67
2021/05/16 10:47:53;;;;;;;4.40;1.42;;;20.90;91.80;;;;;;5033744;28;20026;-67
2021/05/16 10:50:19;;;;;;;7.20;1.60;;;20.90;91.60;;;;;;5032705;28;20125;-67
2021/05/16 10:53:08;;;;;;;4.80;1.45;;;20.80;92.20;;;;;;5033735;28;20120;-67
2021/05/16 10:55:53;;;;;;;4.57;1.50;;;20.90;91.90;;;;;;5022612;28;20025;-65
2021/05/16 10:58:34;;;;;;;6.88;1.15;;;20.90;92.10;;;;;;5032672;28;20033;-66
2021/05/16 11:01:14;;;;;;;5.35;1.40;;;20.90;92.00;;;;;;5033455;28;20498;-65
2021/05/16 11:03:51;;;;;;;4.43;1.35;;;20.90;92.00;;;;;;5030357;28;20405;-68
2021/05/16 11:06:20;;;;;;;5.18;1.38;;;20.90;92.30;;;;;;5033211;28;20026;-63
2021/05/16 11:09:07;;;;;;;3.95;1.33;;;20.90;91.90;;;;;;5033469;28;20026;-66
2021/05/16 11:11:34;;;;;;;4.35;1.48;;;20.90;92.00;;;;;;5032693;28;20041;-68
2021/05/16 11:14:19;;;;;;;1.98;0.90;;;21.00;92.00;;;;;;5032220;28;20064;-70
2021/05/16 11:16:48;;;;;;;4.40;1.15;;;21.00;92.00;;;;;;5033535;28;20022;-67
2021/05/16 11:19:13;;;;;;;3.53;1.15;;;21.10;91.90;;;;;;5032923;28;20037;-62
2021/05/16 11:21:39;;;;;;;3.97;1.15;;;21.10;92.00;;;;;;5032591;28;20025;-65
2021/05/16 11:24:05;;;;;;;3.70;1.17;;;21.20;92.00;;;;;;5032773;28;20028;-63
2021/05/16 11:26:31;;;;;;;4.40;1.20;;;21.30;91.80;;;;;;5033665;28;20029;-63
2021/05/16 11:28:59;;;;;;;3.22;1.10;;;21.30;92.00;;;;;;5032811;28;20101;-67
2021/05/16 11:31:28;;;;;;;3.58;1.17;;;21.30;92.10;;;;;;5032282;28;20022;-66
2021/05/16 11:33:59;;;;;;;3.30;1.02;;;21.70;92.00;;;;;;5032785;28;20383;-65
2021/05/16 11:36:43;;;;;;;5.10;1.17;;;21.70;91.60;;;;;;5032344;28;20065;-64
2021/05/16 11:39:08;;;;;;;2.50;1.10;;;21.50;91.90;;;;;;5032990;28;20447;-71
2021/05/16 11:41:39;;;;;;;4.47;1.10;;;21.30;92.20;;;;;;5032245;28;20105;-70
2021/05/16 11:44:10;;;;;;;4.72;1.20;;;21.20;92.30;;;;;;5030660;28;20339;-70
2021/05/16 11:46:40;;;;;;;3.83;1.05;;;21.20;92.40;;;;;;5030885;28;20029;-68
2021/05/16 11:49:06;;;;;;;4.28;1.35;;;21.30;92.70;;;;;;5030505;28;20026;-67
2021/05/16 11:51:32;;;;;;;3.03;1.08;;;21.10;92.50;;;;;;5031299;28;20529;-68
2021/05/16 11:54:01;;;;;;;3.63;1.02;;;21.20;92.50;;;;;;5030764;28;20072;-70
2021/05/16 11:56:35;;;;;;;3.97;1.10;;;21.20;92.40;;;;;;5030812;28;20018;-68
2021/05/16 11:59:03;;;;;;;4.47;0.88;;;21.10;92.60;;;;;;5029654;28;20025;-70
2021/05/16 12:01:33;;;;;;;4.68;1.30;;;21.10;92.60;;;;;;5030932;28;20120;-68
2021/05/16 12:04:01;;;;;;;2.40;0.98;;;21.00;92.70;;;;;;5029669;28;20030;-70
2021/05/16 12:06:52;;;;;;;4.15;1.20;;;21.00;92.80;;;;;;5029408;28;20067;-65
2021/05/16 12:09:22;;;;;;;3.08;1.20;;;21.00;92.80;;;;;;5028760;28;20109;-69
2021/05/16 12:11:52;;;;;;;4.53;1.30;;;21.00;92.80;;;;;;5030522;28;20040;-69
2021/05/16 12:14:20;;;;;;;3.13;1.15;;;21.00;92.90;;;;;;5028374;28;20065;-70
2021/05/16 12:16:55;;;;;;;4.78;1.25;;;21.00;92.90;;;;;;5027178;28;20048;-66
2021/05/16 12:19:26;;;;;;;4.40;1.10;;;21.00;93.00;;;;;;5030317;28;20100;-70
2021/05/16 12:22:18;;;;;;;2.33;1.20;;;21.00;93.10;;;;;;5028301;28;20014;-69
2021/05/16 12:24:46;;;;;;;2.75;1.00;;;21.00;93.10;;;;;;5028379;28;20056;-71
2021/05/16 12:27:15;;;;;;;5.80;1.35;;;21.00;93.00;;;;;;5028517;28;20486;-69
2021/05/16 12:29:41;;;;;;;3.40;1.20;;;21.00;93.10;;;;;;5030010;28;20527;-70
2021/05/16 12:32:10;;;;;;;6.43;1.40;;;21.10;92.90;;;;;;5029019;28;20029;-71
2021/05/16 12:34:37;;;;;;;4.60;1.40;;;21.10;93.00;;;;;;5030628;28;20091;-71
2021/05/16 12:37:19;;;;;;;4.28;1.13;;;21.10;93.10;;;;;;5031453;28;20057;-68
2021/05/16 12:39:51;;;;;;;4.70;1.35;;;21.10;93.30;;;;;;5030806;28;20481;-70
2021/05/16 12:42:36;;;;;;;3.00;1.10;;;21.10;93.00;;;;;;5037077;28;20470;-63
2021/05/16 12:45:21;;;;;;;4.55;1.00;;;21.20;92.80;;;;;;5029080;28;20029;-70
2021/05/16 12:48:14;;;;;;;2.75;1.00;;;21.30;92.90;;;;;;5028992;28;20577;-71